カンゲルルススアーク の空港の天気 - METARとTAF

カンゲルルススアーク空港 ( BGSF / SFJ ) - グリーンランド カンゲルルススアーク
飛行場実況気象(Metar)
観測時間07/16 03:50 WGST (07/16 05:50 UTC)
風向・風速東北東 6m/s
視程-
天気現象
全天の8割程度の雲 雲底高度 4880m
気温12℃
湿度62%
気圧1002hPa
METARBGSF 160550Z AUTO 07011KT 9999NDV BKN160/// 12/05 Q1002
過去の天気等 Google飛行場航空写真 Wunderground天気予報

過去48時間のMETAR

飛行場予報(TAF)
発表時間: 7/16 03:04 WGST (7/16 05:04 UTC)
予報対象時間: 16日4時 WGST ~ 17日10時 WGST
風向・風速東 7m/s
視程10km以上
全天の8割程度の雲 雲底高度 6100m
16日4時 WGST ~ 16日6時 WGST に徐々に
少しの雲 雲底高度 1070m
全天の8割程度の雲 雲底高度 1830m
16日6時 WGST ~ 16日10時 WGST に一時的に
全天の8割程度の雲 雲底高度 1070m
16日10時 WGST ~ 16日18時 WGST に一時的に
風向・風速東南東 8m/s 瞬間風速 13m/s
16日18時 WGST ~ 16日21時 WGST に徐々に
風向・風速西 5m/s
少しの雲 雲底高度 610m
全天の8割程度の雲 雲底高度 910m
16日21時 WGST ~ 17日10時 WGST に一時的に
視程6000m
天気現象弱い雨
全天の8割程度の雲 雲底高度 370m
TAF BGSF 160504Z 1606/1712 09014KT 9999 BKN200
BECMG 1606/1608 FEW035 BKN060
TEMPO 1608/1612 BKN035
TEMPO 1612/1620 12015G25KT
BECMG 1620/1623 27010KT FEW020 BKN030
TEMPO 1623/1712 6000 -RA BKN012